sensor_id;sensor_type;location;lat;lon;timestamp;P1;durP1;ratioP1;P2;durP2;ratioP2
55003;SDS011;40900;52.710;6.438;2023-04-24T00:00:57;1.77;;;1.10;;
55003;SDS011;40900;52.710;6.438;2023-04-24T00:03:23;1.73;;;1.20;;
55003;SDS011;40900;52.710;6.438;2023-04-24T00:05:49;1.75;;;1.40;;
55003;SDS011;40900;52.710;6.438;2023-04-24T00:08:16;2.28;;;1.27;;
55003;SDS011;40900;52.710;6.438;2023-04-24T00:10:42;2.83;;;1.63;;
55003;SDS011;40900;52.710;6.438;2023-04-24T00:13:08;1.52;;;1.42;;
55003;SDS011;40900;52.710;6.438;2023-04-24T00:15:33;2.55;;;1.83;;
55003;SDS011;40900;52.710;6.438;2023-04-24T00:17:59;1.90;;;1.70;;
55003;SDS011;40900;52.710;6.438;2023-04-24T00:20:26;3.33;;;1.70;;
55003;SDS011;40900;52.710;6.438;2023-04-24T00:22:54;3.60;;;1.80;;
55003;SDS011;40900;52.710;6.438;2023-04-24T00:25:20;2.95;;;2.05;;
55003;SDS011;40900;52.710;6.438;2023-04-24T00:27:46;2.60;;;2.40;;
55003;SDS011;40900;52.710;6.438;2023-04-24T00:30:11;3.08;;;2.58;;
55003;SDS011;40900;52.710;6.438;2023-04-24T00:32:37;3.20;;;2.63;;
55003;SDS011;40900;52.710;6.438;2023-04-24T00:35:03;4.22;;;3.08;;
55003;SDS011;40900;52.710;6.438;2023-04-24T00:37:33;3.65;;;3.10;;
55003;SDS011;40900;52.710;6.438;2023-04-24T00:39:59;3.85;;;3.45;;
55003;SDS011;40900;52.710;6.438;2023-04-24T00:42:25;4.15;;;3.75;;
55003;SDS011;40900;52.710;6.438;2023-04-24T00:44:51;4.65;;;4.25;;
55003;SDS011;40900;52.710;6.438;2023-04-24T00:47:17;4.68;;;4.28;;
55003;SDS011;40900;52.710;6.438;2023-04-24T00:49:45;4.82;;;4.43;;
55003;SDS011;40900;52.710;6.438;2023-04-24T00:52:10;5.43;;;4.93;;
55003;SDS011;40900;52.710;6.438;2023-04-24T00:54:37;4.97;;;4.57;;
55003;SDS011;40900;52.710;6.438;2023-04-24T00:57:03;5.15;;;4.75;;
55003;SDS011;40900;52.710;6.438;2023-04-24T00:59:29;5.40;;;4.95;;
55003;SDS011;40900;52.710;6.438;2023-04-24T01:01:56;5.18;;;4.78;;
55003;SDS011;40900;52.710;6.438;2023-04-24T01:04:23;4.35;;;3.95;;
55003;SDS011;40900;52.710;6.438;2023-04-24T01:06:49;4.40;;;4.00;;
55003;SDS011;40900;52.710;6.438;2023-04-24T01:09:16;4.65;;;4.25;;
55003;SDS011;40900;52.710;6.438;2023-04-24T01:11:42;4.38;;;3.33;;
55003;SDS011;40900;52.710;6.438;2023-04-24T01:14:08;3.90;;;3.60;;
55003;SDS011;40900;52.710;6.438;2023-04-24T01:16:35;4.13;;;3.78;;
55003;SDS011;40900;52.710;6.438;2023-04-24T01:19:00;3.90;;;3.50;;
55003;SDS011;40900;52.710;6.438;2023-04-24T01:21:27;4.30;;;4.00;;
55003;SDS011;40900;52.710;6.438;2023-04-24T01:23:58;4.15;;;3.83;;
55003;SDS011;40900;52.710;6.438;2023-04-24T01:26:24;6.22;;;3.95;;
55003;SDS011;40900;52.710;6.438;2023-04-24T01:28:50;4.20;;;3.90;;
55003;SDS011;40900;52.710;6.438;2023-04-24T01:31:16;4.47;;;4.07;;
55003;SDS011;40900;52.710;6.438;2023-04-24T01:33:42;4.25;;;3.53;;
55003;SDS011;40900;52.710;6.438;2023-04-24T01:36:09;4.15;;;3.47;;
55003;SDS011;40900;52.710;6.438;2023-04-24T01:38:36;3.88;;;3.50;;
55003;SDS011;40900;52.710;6.438;2023-04-24T01:41:02;4.00;;;3.40;;
55003;SDS011;40900;52.710;6.438;2023-04-24T01:43:28;3.90;;;3.53;;
55003;SDS011;40900;52.710;6.438;2023-04-24T01:45:54;3.60;;;3.30;;
55003;SDS011;40900;52.710;6.438;2023-04-24T01:48:20;3.83;;;3.53;;
55003;SDS011;40900;52.710;6.438;2023-04-24T01:50:45;4.68;;;4.10;;
55003;SDS011;40900;52.710;6.438;2023-04-24T01:53:11;3.90;;;3.45;;
55003;SDS011;40900;52.710;6.438;2023-04-24T01:55:37;3.90;;;3.50;;
55003;SDS011;40900;52.710;6.438;2023-04-24T01:58:03;4.07;;;3.78;;
55003;SDS011;40900;52.710;6.438;2023-04-24T02:00:29;5.60;;;3.65;;
55003;SDS011;40900;52.710;6.438;2023-04-24T02:02:55;4.72;;;4.03;;
55003;SDS011;40900;52.710;6.438;2023-04-24T02:05:20;4.85;;;4.35;;
55003;SDS011;40900;52.710;6.438;2023-04-24T02:07:46;4.80;;;4.30;;
55003;SDS011;40900;52.710;6.438;2023-04-24T02:10:12;4.70;;;4.30;;
55003;SDS011;40900;52.710;6.438;2023-04-24T02:12:38;4.70;;;4.30;;
55003;SDS011;40900;52.710;6.438;2023-04-24T02:15:03;4.82;;;4.38;;
55003;SDS011;40900;52.710;6.438;2023-04-24T02:17:30;5.10;;;4.60;;
55003;SDS011;40900;52.710;6.438;2023-04-24T02:19:56;4.70;;;4.30;;
55003;SDS011;40900;52.710;6.438;2023-04-24T02:22:22;5.53;;;5.03;;
55003;SDS011;40900;52.710;6.438;2023-04-24T02:24:47;5.57;;;5.03;;
55003;SDS011;40900;52.710;6.438;2023-04-24T02:27:13;5.20;;;4.70;;
55003;SDS011;40900;52.710;6.438;2023-04-24T02:29:39;4.95;;;4.53;;
55003;SDS011;40900;52.710;6.438;2023-04-24T02:32:05;5.95;;;5.13;;
55003;SDS011;40900;52.710;6.438;2023-04-24T02:34:31;5.55;;;5.05;;
55003;SDS011;40900;52.710;6.438;2023-04-24T02:36:56;5.75;;;5.25;;
55003;SDS011;40900;52.710;6.438;2023-04-24T02:39:22;5.38;;;4.88;;
55003;SDS011;40900;52.710;6.438;2023-04-24T02:41:48;5.95;;;5.35;;
55003;SDS011;40900;52.710;6.438;2023-04-24T02:44:14;6.43;;;5.65;;
55003;SDS011;40900;52.710;6.438;2023-04-24T02:46:40;5.70;;;5.10;;
55003;SDS011;40900;52.710;6.438;2023-04-24T02:49:07;7.13;;;5.47;;
55003;SDS011;40900;52.710;6.438;2023-04-24T02:51:32;5.68;;;4.80;;
55003;SDS011;40900;52.710;6.438;2023-04-24T02:53:58;6.25;;;5.40;;
55003;SDS011;40900;52.710;6.438;2023-04-24T02:56:24;6.75;;;5.70;;
55003;SDS011;40900;52.710;6.438;2023-04-24T02:58:50;5.40;;;4.90;;
55003;SDS011;40900;52.710;6.438;2023-04-24T03:01:15;5.88;;;5.28;;
55003;SDS011;40900;52.710;6.438;2023-04-24T03:03:42;5.68;;;5.03;;
55003;SDS011;40900;52.710;6.438;2023-04-24T03:06:08;5.88;;;5.18;;
55003;SDS011;40900;52.710;6.438;2023-04-24T03:08:34;5.25;;;4.75;;
55003;SDS011;40900;52.710;6.438;2023-04-24T03:11:00;5.88;;;5.05;;
55003;SDS011;40900;52.710;6.438;2023-04-24T03:13:26;5.13;;;4.72;;
55003;SDS011;40900;52.710;6.438;2023-04-24T03:15:51;5.28;;;4.65;;
55003;SDS011;40900;52.710;6.438;2023-04-24T03:18:19;4.75;;;4.35;;
55003;SDS011;40900;52.710;6.438;2023-04-24T03:20:47;4.55;;;4.15;;
55003;SDS011;40900;52.710;6.438;2023-04-24T03:23:13;8.07;;;4.88;;
55003;SDS011;40900;52.710;6.438;2023-04-24T03:25:39;4.90;;;4.40;;
55003;SDS011;40900;52.710;6.438;2023-04-24T03:28:05;6.03;;;5.13;;
55003;SDS011;40900;52.710;6.438;2023-04-24T03:30:31;6.10;;;5.60;;
55003;SDS011;40900;52.710;6.438;2023-04-24T03:32:57;6.00;;;5.35;;
55003;SDS011;40900;52.710;6.438;2023-04-24T03:35:22;5.78;;;5.28;;
55003;SDS011;40900;52.710;6.438;2023-04-24T03:37:48;9.52;;;4.93;;
55003;SDS011;40900;52.710;6.438;2023-04-24T03:40:14;5.20;;;4.70;;
55003;SDS011;40900;52.710;6.438;2023-04-24T03:42:40;5.35;;;3.88;;
55003;SDS011;40900;52.710;6.438;2023-04-24T03:45:06;4.13;;;3.80;;
55003;SDS011;40900;52.710;6.438;2023-04-24T03:47:32;4.55;;;4.15;;
55003;SDS011;40900;52.710;6.438;2023-04-24T03:49:57;4.95;;;4.28;;
55003;SDS011;40900;52.710;6.438;2023-04-24T03:52:23;4.32;;;3.92;;
55003;SDS011;40900;52.710;6.438;2023-04-24T03:54:49;4.90;;;4.40;;
55003;SDS011;40900;52.710;6.438;2023-04-24T03:57:14;5.05;;;4.55;;
55003;SDS011;40900;52.710;6.438;2023-04-24T03:59:40;5.97;;;5.38;;
55003;SDS011;40900;52.710;6.438;2023-04-24T04:02:06;6.55;;;5.88;;
55003;SDS011;40900;52.710;6.438;2023-04-24T04:04:32;6.00;;;5.40;;
55003;SDS011;40900;52.710;6.438;2023-04-24T04:06:57;7.10;;;6.50;;
55003;SDS011;40900;52.710;6.438;2023-04-24T04:09:26;6.30;;;5.80;;
55003;SDS011;40900;52.710;6.438;2023-04-24T04:11:52;5.53;;;5.03;;
55003;SDS011;40900;52.710;6.438;2023-04-24T04:14:18;6.38;;;5.63;;
55003;SDS011;40900;52.710;6.438;2023-04-24T04:16:44;7.38;;;6.68;;
55003;SDS011;40900;52.710;6.438;2023-04-24T04:19:10;6.50;;;5.78;;
55003;SDS011;40900;52.710;6.438;2023-04-24T04:21:35;8.55;;;6.22;;
55003;SDS011;40900;52.710;6.438;2023-04-24T04:24:01;5.70;;;5.20;;
55003;SDS011;40900;52.710;6.438;2023-04-24T04:26:27;5.32;;;4.82;;
55003;SDS011;40900;52.710;6.438;2023-04-24T04:28:53;6.07;;;4.30;;
55003;SDS011;40900;52.710;6.438;2023-04-24T04:31:21;5.80;;;3.72;;
55003;SDS011;40900;52.710;6.438;2023-04-24T04:33:48;4.05;;;3.65;;
55003;SDS011;40900;52.710;6.438;2023-04-24T04:36:14;4.15;;;3.50;;
55003;SDS011;40900;52.710;6.438;2023-04-24T04:38:39;3.65;;;3.00;;
55003;SDS011;40900;52.710;6.438;2023-04-24T04:41:05;3.30;;;2.88;;
55003;SDS011;40900;52.710;6.438;2023-04-24T04:43:32;3.35;;;3.03;;
55003;SDS011;40900;52.710;6.438;2023-04-24T04:45:59;4.18;;;3.40;;
55003;SDS011;40900;52.710;6.438;2023-04-24T04:48:26;3.53;;;3.10;;
55003;SDS011;40900;52.710;6.438;2023-04-24T04:50:52;3.95;;;3.08;;
55003;SDS011;40900;52.710;6.438;2023-04-24T04:53:18;3.25;;;2.95;;
55003;SDS011;40900;52.710;6.438;2023-04-24T04:55:43;3.50;;;3.17;;
55003;SDS011;40900;52.710;6.438;2023-04-24T04:58:09;5.70;;;3.35;;
55003;SDS011;40900;52.710;6.438;2023-04-24T05:00:35;5.88;;;3.20;;
55003;SDS011;40900;52.710;6.438;2023-04-24T05:03:02;3.75;;;3.22;;
55003;SDS011;40900;52.710;6.438;2023-04-24T05:05:28;3.53;;;3.20;;
55003;SDS011;40900;52.710;6.438;2023-04-24T05:07:54;4.85;;;4.35;;
55003;SDS011;40900;52.710;6.438;2023-04-24T05:10:20;5.40;;;3.80;;
55003;SDS011;40900;52.710;6.438;2023-04-24T05:12:45;5.18;;;3.90;;
55003;SDS011;40900;52.710;6.438;2023-04-24T05:15:11;4.10;;;3.40;;
55003;SDS011;40900;52.710;6.438;2023-04-24T05:17:37;4.47;;;3.63;;
55003;SDS011;40900;52.710;6.438;2023-04-24T05:20:04;4.30;;;3.20;;
55003;SDS011;40900;52.710;6.438;2023-04-24T05:22:31;4.35;;;2.38;;
55003;SDS011;40900;52.710;6.438;2023-04-24T05:24:57;3.10;;;1.90;;
55003;SDS011;40900;52.710;6.438;2023-04-24T05:27:22;2.22;;;1.50;;
55003;SDS011;40900;52.710;6.438;2023-04-24T05:29:49;2.10;;;1.52;;
55003;SDS011;40900;52.710;6.438;2023-04-24T05:32:15;3.22;;;1.70;;
55003;SDS011;40900;52.710;6.438;2023-04-24T05:34:40;3.80;;;1.70;;
55003;SDS011;40900;52.710;6.438;2023-04-24T05:37:06;7.88;;;2.40;;
55003;SDS011;40900;52.710;6.438;2023-04-24T05:39:34;6.38;;;3.00;;
55003;SDS011;40900;52.710;6.438;2023-04-24T05:42:00;5.97;;;3.15;;
55003;SDS011;40900;52.710;6.438;2023-04-24T05:44:26;7.35;;;4.78;;
55003;SDS011;40900;52.710;6.438;2023-04-24T05:46:52;4.50;;;3.92;;
55003;SDS011;40900;52.710;6.438;2023-04-24T05:49:20;9.45;;;4.00;;
55003;SDS011;40900;52.710;6.438;2023-04-24T05:51:45;5.60;;;4.63;;
55003;SDS011;40900;52.710;6.438;2023-04-24T05:54:11;5.57;;;4.40;;
55003;SDS011;40900;52.710;6.438;2023-04-24T05:56:37;6.45;;;5.57;;
55003;SDS011;40900;52.710;6.438;2023-04-24T05:59:03;6.82;;;5.10;;
55003;SDS011;40900;52.710;6.438;2023-04-24T06:01:29;10.50;;;5.45;;
55003;SDS011;40900;52.710;6.438;2023-04-24T06:03:56;10.73;;;7.07;;
55003;SDS011;40900;52.710;6.438;2023-04-24T06:06:23;12.63;;;8.07;;
55003;SDS011;40900;52.710;6.438;2023-04-24T06:08:49;14.75;;;10.20;;
55003;SDS011;40900;52.710;6.438;2023-04-24T06:11:14;17.35;;;10.82;;
55003;SDS011;40900;52.710;6.438;2023-04-24T06:13:40;20.75;;;12.18;;
55003;SDS011;40900;52.710;6.438;2023-04-24T06:16:06;16.63;;;10.65;;
55003;SDS011;40900;52.710;6.438;2023-04-24T06:18:32;17.80;;;11.20;;
55003;SDS011;40900;52.710;6.438;2023-04-24T06:20:58;13.93;;;10.30;;
55003;SDS011;40900;52.710;6.438;2023-04-24T06:23:24;12.35;;;8.52;;
55003;SDS011;40900;52.710;6.438;2023-04-24T06:25:50;14.48;;;7.90;;
55003;SDS011;40900;52.710;6.438;2023-04-24T06:28:16;12.55;;;7.35;;
55003;SDS011;40900;52.710;6.438;2023-04-24T06:30:42;14.60;;;8.48;;
55003;SDS011;40900;52.710;6.438;2023-04-24T06:33:08;11.52;;;8.57;;
55003;SDS011;40900;52.710;6.438;2023-04-24T06:35:34;15.73;;;9.18;;
55003;SDS011;40900;52.710;6.438;2023-04-24T06:38:01;10.70;;;7.50;;
55003;SDS011;40900;52.710;6.438;2023-04-24T06:40:26;11.00;;;7.95;;
55003;SDS011;40900;52.710;6.438;2023-04-24T06:42:52;10.70;;;7.38;;
55003;SDS011;40900;52.710;6.438;2023-04-24T06:45:18;8.88;;;6.95;;
55003;SDS011;40900;52.710;6.438;2023-04-24T06:47:43;10.95;;;7.18;;
55003;SDS011;40900;52.710;6.438;2023-04-24T06:50:09;12.18;;;6.57;;
55003;SDS011;40900;52.710;6.438;2023-04-24T06:52:36;9.30;;;6.15;;
55003;SDS011;40900;52.710;6.438;2023-04-24T06:55:02;10.68;;;6.07;;
55003;SDS011;40900;52.710;6.438;2023-04-24T06:57:29;8.18;;;5.38;;
55003;SDS011;40900;52.710;6.438;2023-04-24T06:59:55;8.07;;;6.00;;
55003;SDS011;40900;52.710;6.438;2023-04-24T07:02:21;10.85;;;6.13;;
55003;SDS011;40900;52.710;6.438;2023-04-24T07:04:47;11.35;;;6.00;;
55003;SDS011;40900;52.710;6.438;2023-04-24T07:07:13;9.38;;;6.50;;
55003;SDS011;40900;52.710;6.438;2023-04-24T07:09:42;9.15;;;6.93;;
55003;SDS011;40900;52.710;6.438;2023-04-24T07:12:09;7.85;;;6.47;;
55003;SDS011;40900;52.710;6.438;2023-04-24T07:14:38;12.00;;;7.45;;
55003;SDS011;40900;52.710;6.438;2023-04-24T07:17:05;9.65;;;6.93;;
55003;SDS011;40900;52.710;6.438;2023-04-24T07:19:31;10.57;;;8.27;;
55003;SDS011;40900;52.710;6.438;2023-04-24T07:21:58;11.95;;;8.10;;
55003;SDS011;40900;52.710;6.438;2023-04-24T07:24:25;15.60;;;7.88;;
55003;SDS011;40900;52.710;6.438;2023-04-24T07:26:51;14.73;;;7.00;;
55003;SDS011;40900;52.710;6.438;2023-04-24T07:29:17;9.70;;;7.03;;
55003;SDS011;40900;52.710;6.438;2023-04-24T07:31:44;11.52;;;7.32;;
55003;SDS011;40900;52.710;6.438;2023-04-24T07:34:10;10.50;;;6.97;;
55003;SDS011;40900;52.710;6.438;2023-04-24T07:36:36;11.38;;;8.13;;
55003;SDS011;40900;52.710;6.438;2023-04-24T07:39:03;10.63;;;7.32;;
55003;SDS011;40900;52.710;6.438;2023-04-24T07:41:30;11.82;;;6.55;;
55003;SDS011;40900;52.710;6.438;2023-04-24T07:43:55;10.70;;;6.70;;
55003;SDS011;40900;52.710;6.438;2023-04-24T07:46:21;11.43;;;6.95;;
55003;SDS011;40900;52.710;6.438;2023-04-24T07:48:48;10.10;;;6.30;;
55003;SDS011;40900;52.710;6.438;2023-04-24T07:51:14;10.85;;;6.95;;
55003;SDS011;40900;52.710;6.438;2023-04-24T07:53:41;10.00;;;6.78;;
55003;SDS011;40900;52.710;6.438;2023-04-24T07:56:07;8.68;;;5.20;;
55003;SDS011;40900;52.710;6.438;2023-04-24T07:58:32;8.55;;;4.90;;
55003;SDS011;40900;52.710;6.438;2023-04-24T08:00:58;8.10;;;4.55;;
55003;SDS011;40900;52.710;6.438;2023-04-24T08:03:24;6.75;;;4.45;;
55003;SDS011;40900;52.710;6.438;2023-04-24T08:05:50;9.25;;;5.45;;
55003;SDS011;40900;52.710;6.438;2023-04-24T08:08:16;5.05;;;4.00;;
55003;SDS011;40900;52.710;6.438;2023-04-24T08:10:42;6.30;;;4.30;;
55003;SDS011;40900;52.710;6.438;2023-04-24T08:13:07;7.05;;;4.70;;
55003;SDS011;40900;52.710;6.438;2023-04-24T08:15:33;8.57;;;5.10;;
55003;SDS011;40900;52.710;6.438;2023-04-24T08:17:59;9.13;;;5.90;;
55003;SDS011;40900;52.710;6.438;2023-04-24T08:20:25;14.05;;;6.10;;
55003;SDS011;40900;52.710;6.438;2023-04-24T08:22:51;10.07;;;6.93;;
55003;SDS011;40900;52.710;6.438;2023-04-24T08:25:17;16.05;;;7.70;;
55003;SDS011;40900;52.710;6.438;2023-04-24T08:27:44;18.02;;;11.52;;
55003;SDS011;40900;52.710;6.438;2023-04-24T08:30:10;21.92;;;13.90;;
55003;SDS011;40900;52.710;6.438;2023-04-24T08:32:36;22.55;;;14.68;;
55003;SDS011;40900;52.710;6.438;2023-04-24T08:35:02;22.85;;;14.65;;
55003;SDS011;40900;52.710;6.438;2023-04-24T08:37:28;26.95;;;14.95;;
55003;SDS011;40900;52.710;6.438;2023-04-24T08:39:54;22.00;;;14.25;;
55003;SDS011;40900;52.710;6.438;2023-04-24T08:42:20;21.13;;;14.55;;
55003;SDS011;40900;52.710;6.438;2023-04-24T08:44:46;23.83;;;15.35;;
55003;SDS011;40900;52.710;6.438;2023-04-24T08:47:14;23.42;;;16.13;;
55003;SDS011;40900;52.710;6.438;2023-04-24T08:49:40;31.27;;;19.25;;
55003;SDS011;40900;52.710;6.438;2023-04-24T08:52:07;30.80;;;19.17;;
55003;SDS011;40900;52.710;6.438;2023-04-24T08:54:34;32.50;;;20.75;;
55003;SDS011;40900;52.710;6.438;2023-04-24T08:57:01;31.48;;;19.50;;
55003;SDS011;40900;52.710;6.438;2023-04-24T08:59:28;31.42;;;20.20;;
55003;SDS011;40900;52.710;6.438;2023-04-24T09:01:55;31.38;;;20.25;;
55003;SDS011;40900;52.710;6.438;2023-04-24T09:04:22;29.38;;;18.33;;
55003;SDS011;40900;52.710;6.438;2023-04-24T09:06:49;33.17;;;18.52;;
55003;SDS011;40900;52.710;6.438;2023-04-24T09:09:23;25.92;;;16.48;;
55003;SDS011;40900;52.710;6.438;2023-04-24T09:11:50;26.30;;;16.92;;
55003;SDS011;40900;52.710;6.438;2023-04-24T09:14:18;22.08;;;16.08;;
55003;SDS011;40900;52.710;6.438;2023-04-24T09:16:44;25.30;;;16.85;;
55003;SDS011;40900;52.710;6.438;2023-04-24T09:19:11;25.13;;;16.60;;
55003;SDS011;40900;52.710;6.438;2023-04-24T09:21:36;28.90;;;16.88;;
55003;SDS011;40900;52.710;6.438;2023-04-24T09:24:07;30.17;;;16.67;;
55003;SDS011;40900;52.710;6.438;2023-04-24T09:26:39;26.38;;;15.55;;
55003;SDS011;40900;52.710;6.438;2023-04-24T09:29:05;35.22;;;15.60;;
55003;SDS011;40900;52.710;6.438;2023-04-24T09:31:30;27.15;;;15.52;;
55003;SDS011;40900;52.710;6.438;2023-04-24T09:33:57;24.67;;;16.38;;
55003;SDS011;40900;52.710;6.438;2023-04-24T09:36:31;24.77;;;16.48;;
55003;SDS011;40900;52.710;6.438;2023-04-24T09:39:02;20.77;;;14.30;;
55003;SDS011;40900;52.710;6.438;2023-04-24T09:41:31;25.52;;;14.57;;
55003;SDS011;40900;52.710;6.438;2023-04-24T09:43:58;17.45;;;12.73;;
55003;SDS011;40900;52.710;6.438;2023-04-24T09:46:44;24.88;;;12.93;;
55003;SDS011;40900;52.710;6.438;2023-04-24T09:49:14;20.90;;;12.48;;
55003;SDS011;40900;52.710;6.438;2023-04-24T09:51:41;17.60;;;11.25;;
55003;SDS011;40900;52.710;6.438;2023-04-24T09:54:17;18.50;;;10.73;;
55003;SDS011;40900;52.710;6.438;2023-04-24T09:56:46;23.13;;;11.20;;
55003;SDS011;40900;52.710;6.438;2023-04-24T09:59:13;19.95;;;10.77;;
55003;SDS011;40900;52.710;6.438;2023-04-24T10:01:40;16.65;;;8.80;;
55003;SDS011;40900;52.710;6.438;2023-04-24T10:04:19;15.50;;;8.35;;
55003;SDS011;40900;52.710;6.438;2023-04-24T10:06:50;12.43;;;8.25;;
55003;SDS011;40900;52.710;6.438;2023-04-24T10:09:18;18.02;;;8.25;;
55003;SDS011;40900;52.710;6.438;2023-04-24T10:11:48;14.45;;;6.72;;
55003;SDS011;40900;52.710;6.438;2023-04-24T10:14:16;15.55;;;6.72;;
55003;SDS011;40900;52.710;6.438;2023-04-24T10:16:43;15.68;;;7.25;;
55003;SDS011;40900;52.710;6.438;2023-04-24T10:19:12;12.10;;;5.13;;
55003;SDS011;40900;52.710;6.438;2023-04-24T10:21:38;16.10;;;5.40;;
55003;SDS011;40900;52.710;6.438;2023-04-24T10:24:10;15.35;;;4.57;;
55003;SDS011;40900;52.710;6.438;2023-04-24T10:26:38;15.23;;;5.15;;
55003;SDS011;40900;52.710;6.438;2023-04-24T10:29:05;16.65;;;4.95;;
55003;SDS011;40900;52.710;6.438;2023-04-24T10:31:36;18.17;;;4.47;;
55003;SDS011;40900;52.710;6.438;2023-04-24T10:34:03;10.32;;;3.92;;
55003;SDS011;40900;52.710;6.438;2023-04-24T10:36:30;13.98;;;3.88;;
55003;SDS011;40900;52.710;6.438;2023-04-24T10:38:59;19.63;;;4.90;;
55003;SDS011;40900;52.710;6.438;2023-04-24T10:41:27;12.50;;;4.03;;
55003;SDS011;40900;52.710;6.438;2023-04-24T10:44:14;15.93;;;3.83;;
55003;SDS011;40900;52.710;6.438;2023-04-24T10:46:46;16.35;;;4.15;;
55003;SDS011;40900;52.710;6.438;2023-04-24T10:49:17;16.48;;;4.28;;
55003;SDS011;40900;52.710;6.438;2023-04-24T10:51:54;12.80;;;3.85;;
55003;SDS011;40900;52.710;6.438;2023-04-24T10:54:42;11.57;;;3.95;;
55003;SDS011;40900;52.710;6.438;2023-04-24T11:02:38;14.73;;;4.15;;
55003;SDS011;40900;52.710;6.438;2023-04-24T11:05:08;15.63;;;3.67;;
55003;SDS011;40900;52.710;6.438;2023-04-24T11:10:46;13.50;;;3.55;;
55003;SDS011;40900;52.710;6.438;2023-04-24T11:13:21;15.00;;;4.03;;
55003;SDS011;40900;52.710;6.438;2023-04-24T11:18:40;15.93;;;3.42;;
55003;SDS011;40900;52.710;6.438;2023-04-24T11:21:16;14.90;;;3.47;;
55003;SDS011;40900;52.710;6.438;2023-04-24T11:23:42;12.57;;;3.33;;
55003;SDS011;40900;52.710;6.438;2023-04-24T11:26:10;16.45;;;3.75;;
55003;SDS011;40900;52.710;6.438;2023-04-24T11:28:37;12.68;;;3.05;;
55003;SDS011;40900;52.710;6.438;2023-04-24T11:34:11;8.65;;;2.53;;
55003;SDS011;40900;52.710;6.438;2023-04-24T11:36:39;5.65;;;2.20;;
55003;SDS011;40900;52.710;6.438;2023-04-24T11:39:08;10.10;;;2.35;;
55003;SDS011;40900;52.710;6.438;2023-04-24T11:41:35;12.95;;;2.47;;
55003;SDS011;40900;52.710;6.438;2023-04-24T11:44:01;8.95;;;2.60;;
55003;SDS011;40900;52.710;6.438;2023-04-24T11:46:30;14.18;;;3.42;;
55003;SDS011;40900;52.710;6.438;2023-04-24T11:48:57;9.13;;;2.55;;
55003;SDS011;40900;52.710;6.438;2023-04-24T11:51:23;11.95;;;2.47;;
55003;SDS011;40900;52.710;6.438;2023-04-24T11:53:52;9.60;;;2.47;;
55003;SDS011;40900;52.710;6.438;2023-04-24T11:56:19;10.35;;;2.72;;
55003;SDS011;40900;52.710;6.438;2023-04-24T11:58:47;8.70;;;2.85;;
55003;SDS011;40900;52.710;6.438;2023-04-24T12:01:13;7.88;;;2.15;;
55003;SDS011;40900;52.710;6.438;2023-04-24T12:03:39;10.27;;;2.30;;
55003;SDS011;40900;52.710;6.438;2023-04-24T12:06:08;13.70;;;2.72;;
55003;SDS011;40900;52.710;6.438;2023-04-24T12:08:36;8.93;;;2.88;;
55003;SDS011;40900;52.710;6.438;2023-04-24T12:11:03;14.00;;;3.42;;
55003;SDS011;40900;52.710;6.438;2023-04-24T12:13:30;9.43;;;2.65;;
55003;SDS011;40900;52.710;6.438;2023-04-24T12:15:59;8.40;;;2.30;;
55003;SDS011;40900;52.710;6.438;2023-04-24T12:18:26;6.20;;;2.00;;
55003;SDS011;40900;52.710;6.438;2023-04-24T12:20:52;10.00;;;3.50;;
55003;SDS011;40900;52.710;6.438;2023-04-24T12:23:34;6.82;;;1.85;;
55003;SDS011;40900;52.710;6.438;2023-04-24T12:26:00;6.07;;;1.92;;
55003;SDS011;40900;52.710;6.438;2023-04-24T12:28:36;6.65;;;2.15;;
55003;SDS011;40900;52.710;6.438;2023-04-24T12:31:03;7.60;;;1.80;;
55003;SDS011;40900;52.710;6.438;2023-04-24T12:33:32;5.90;;;1.40;;
55003;SDS011;40900;52.710;6.438;2023-04-24T12:35:59;4.72;;;1.70;;
55003;SDS011;40900;52.710;6.438;2023-04-24T12:38:26;5.10;;;1.40;;
55003;SDS011;40900;52.710;6.438;2023-04-24T12:41:07;6.15;;;1.40;;
55003;SDS011;40900;52.710;6.438;2023-04-24T12:43:51;4.40;;;1.30;;
55003;SDS011;40900;52.710;6.438;2023-04-24T12:46:17;5.22;;;1.30;;
55003;SDS011;40900;52.710;6.438;2023-04-24T12:48:43;3.15;;;1.10;;
55003;SDS011;40900;52.710;6.438;2023-04-24T12:51:09;6.82;;;1.20;;
55003;SDS011;40900;52.710;6.438;2023-04-24T12:53:34;4.97;;;1.33;;
55003;SDS011;40900;52.710;6.438;2023-04-24T12:56:00;4.97;;;1.15;;
55003;SDS011;40900;52.710;6.438;2023-04-24T12:58:25;10.43;;;1.70;;
55003;SDS011;40900;52.710;6.438;2023-04-24T13:00:51;10.15;;;2.38;;
55003;SDS011;40900;52.710;6.438;2023-04-24T13:03:17;7.25;;;1.95;;
55003;SDS011;40900;52.710;6.438;2023-04-24T13:05:45;6.78;;;2.30;;
55003;SDS011;40900;52.710;6.438;2023-04-24T13:08:10;7.97;;;2.70;;
55003;SDS011;40900;52.710;6.438;2023-04-24T13:10:38;9.60;;;3.10;;
55003;SDS011;40900;52.710;6.438;2023-04-24T13:13:04;9.02;;;2.53;;
55003;SDS011;40900;52.710;6.438;2023-04-24T13:15:30;7.03;;;1.70;;
55003;SDS011;40900;52.710;6.438;2023-04-24T13:17:56;12.40;;;1.90;;
55003;SDS011;40900;52.710;6.438;2023-04-24T13:20:21;9.93;;;1.95;;
55003;SDS011;40900;52.710;6.438;2023-04-24T13:22:47;9.75;;;1.63;;
55003;SDS011;40900;52.710;6.438;2023-04-24T13:25:13;4.88;;;1.35;;
55003;SDS011;40900;52.710;6.438;2023-04-24T13:27:42;9.52;;;1.48;;
55003;SDS011;40900;52.710;6.438;2023-04-24T13:30:07;5.07;;;1.20;;
55003;SDS011;40900;52.710;6.438;2023-04-24T13:32:34;6.55;;;1.45;;
55003;SDS011;40900;52.710;6.438;2023-04-24T13:35:00;6.18;;;1.52;;
55003;SDS011;40900;52.710;6.438;2023-04-24T13:37:26;5.40;;;1.20;;
55003;SDS011;40900;52.710;6.438;2023-04-24T13:39:51;4.43;;;1.30;;
55003;SDS011;40900;52.710;6.438;2023-04-24T13:42:17;4.32;;;1.63;;
55003;SDS011;40900;52.710;6.438;2023-04-24T13:44:43;4.75;;;1.30;;
55003;SDS011;40900;52.710;6.438;2023-04-24T13:47:09;6.90;;;1.48;;
55003;SDS011;40900;52.710;6.438;2023-04-24T13:49:35;5.03;;;1.42;;
55003;SDS011;40900;52.710;6.438;2023-04-24T13:52:01;5.75;;;1.45;;
55003;SDS011;40900;52.710;6.438;2023-04-24T13:54:27;7.10;;;1.60;;
55003;SDS011;40900;52.710;6.438;2023-04-24T13:56:53;7.22;;;1.75;;
55003;SDS011;40900;52.710;6.438;2023-04-24T13:59:21;9.48;;;2.10;;
55003;SDS011;40900;52.710;6.438;2023-04-24T14:01:47;10.13;;;2.10;;
55003;SDS011;40900;52.710;6.438;2023-04-24T14:04:12;13.50;;;3.00;;
55003;SDS011;40900;52.710;6.438;2023-04-24T14:06:38;13.80;;;2.63;;
55003;SDS011;40900;52.710;6.438;2023-04-24T14:09:04;13.32;;;2.22;;
55003;SDS011;40900;52.710;6.438;2023-04-24T14:11:31;9.50;;;2.90;;
55003;SDS011;40900;52.710;6.438;2023-04-24T14:13:58;9.45;;;2.70;;
55003;SDS011;40900;52.710;6.438;2023-04-24T14:16:24;12.70;;;2.63;;
55003;SDS011;40900;52.710;6.438;2023-04-24T14:18:50;17.80;;;3.40;;
55003;SDS011;40900;52.710;6.438;2023-04-24T14:21:16;9.82;;;2.60;;
55003;SDS011;40900;52.710;6.438;2023-04-24T14:23:41;17.13;;;3.53;;
55003;SDS011;40900;52.710;6.438;2023-04-24T14:26:07;14.55;;;3.15;;
55003;SDS011;40900;52.710;6.438;2023-04-24T14:28:33;16.23;;;3.38;;
55003;SDS011;40900;52.710;6.438;2023-04-24T14:30:59;10.50;;;2.67;;
55003;SDS011;40900;52.710;6.438;2023-04-24T14:33:24;17.23;;;3.15;;
55003;SDS011;40900;52.710;6.438;2023-04-24T14:35:50;14.38;;;3.25;;
55003;SDS011;40900;52.710;6.438;2023-04-24T14:38:16;13.90;;;2.92;;
55003;SDS011;40900;52.710;6.438;2023-04-24T14:40:41;17.10;;;3.33;;
55003;SDS011;40900;52.710;6.438;2023-04-24T14:43:07;14.73;;;3.50;;
55003;SDS011;40900;52.710;6.438;2023-04-24T14:45:33;16.00;;;3.00;;
55003;SDS011;40900;52.710;6.438;2023-04-24T14:47:58;16.15;;;3.33;;
55003;SDS011;40900;52.710;6.438;2023-04-24T14:50:24;22.30;;;3.35;;
55003;SDS011;40900;52.710;6.438;2023-04-24T14:52:53;21.00;;;3.38;;